sensor_id;sensor_type;location;lat;lon;timestamp;P1;durP1;ratioP1;P2;durP2;ratioP2
11691;SDS011;33659;42.672;23.354;2024-02-23T00:02:12;10.43;;;6.57;;
11691;SDS011;33659;42.672;23.354;2024-02-23T00:04:39;7.83;;;5.57;;
11691;SDS011;33659;42.672;23.354;2024-02-23T00:07:07;11.97;;;6.23;;
11691;SDS011;33659;42.672;23.354;2024-02-23T00:09:34;9.07;;;6.37;;
11691;SDS011;33659;42.672;23.354;2024-02-23T00:12:03;7.63;;;5.90;;
11691;SDS011;33659;42.672;23.354;2024-02-23T00:14:30;12.10;;;5.77;;
11691;SDS011;33659;42.672;23.354;2024-02-23T00:16:57;8.10;;;5.40;;
11691;SDS011;33659;42.672;23.354;2024-02-23T00:19:26;9.70;;;5.93;;
11691;SDS011;33659;42.672;23.354;2024-02-23T00:21:53;7.40;;;5.90;;
11691;SDS011;33659;42.672;23.354;2024-02-23T00:24:19;8.40;;;5.23;;
11691;SDS011;33659;42.672;23.354;2024-02-23T00:26:47;8.43;;;5.53;;
11691;SDS011;33659;42.672;23.354;2024-02-23T00:29:15;6.77;;;5.50;;
11691;SDS011;33659;42.672;23.354;2024-02-23T00:31:42;7.67;;;5.73;;
11691;SDS011;33659;42.672;23.354;2024-02-23T00:34:10;7.40;;;5.47;;
11691;SDS011;33659;42.672;23.354;2024-02-23T00:36:38;7.63;;;5.20;;
11691;SDS011;33659;42.672;23.354;2024-02-23T00:39:05;8.93;;;5.30;;
11691;SDS011;33659;42.672;23.354;2024-02-23T00:41:32;7.73;;;5.17;;
11691;SDS011;33659;42.672;23.354;2024-02-23T00:43:59;6.90;;;5.10;;
11691;SDS011;33659;42.672;23.354;2024-02-23T00:46:27;6.87;;;5.00;;
11691;SDS011;33659;42.672;23.354;2024-02-23T00:48:54;6.63;;;5.40;;
11691;SDS011;33659;42.672;23.354;2024-02-23T00:51:20;6.90;;;5.00;;
11691;SDS011;33659;42.672;23.354;2024-02-23T00:53:47;8.27;;;5.23;;
11691;SDS011;33659;42.672;23.354;2024-02-23T00:56:14;7.43;;;5.17;;
11691;SDS011;33659;42.672;23.354;2024-02-23T00:58:41;9.73;;;5.17;;
11691;SDS011;33659;42.672;23.354;2024-02-23T01:01:07;8.67;;;5.13;;
11691;SDS011;33659;42.672;23.354;2024-02-23T01:03:35;7.37;;;5.50;;
11691;SDS011;33659;42.672;23.354;2024-02-23T01:06:02;7.43;;;4.93;;
11691;SDS011;33659;42.672;23.354;2024-02-23T01:08:29;8.17;;;5.50;;
11691;SDS011;33659;42.672;23.354;2024-02-23T01:10:56;7.83;;;5.43;;
11691;SDS011;33659;42.672;23.354;2024-02-23T01:13:23;8.03;;;5.40;;
11691;SDS011;33659;42.672;23.354;2024-02-23T01:15:49;6.90;;;4.90;;
11691;SDS011;33659;42.672;23.354;2024-02-23T01:18:16;7.93;;;5.47;;
11691;SDS011;33659;42.672;23.354;2024-02-23T01:20:44;9.83;;;5.77;;
11691;SDS011;33659;42.672;23.354;2024-02-23T01:23:11;7.17;;;5.40;;
11691;SDS011;33659;42.672;23.354;2024-02-23T01:25:38;7.77;;;5.17;;
11691;SDS011;33659;42.672;23.354;2024-02-23T01:28:04;8.97;;;5.63;;
11691;SDS011;33659;42.672;23.354;2024-02-23T01:30:31;7.10;;;5.33;;
11691;SDS011;33659;42.672;23.354;2024-02-23T01:32:58;8.97;;;5.83;;
11691;SDS011;33659;42.672;23.354;2024-02-23T01:35:25;7.20;;;5.10;;
11691;SDS011;33659;42.672;23.354;2024-02-23T01:37:54;8.80;;;5.63;;
11691;SDS011;33659;42.672;23.354;2024-02-23T01:40:21;9.67;;;5.37;;
11691;SDS011;33659;42.672;23.354;2024-02-23T01:42:47;8.47;;;5.43;;
11691;SDS011;33659;42.672;23.354;2024-02-23T01:45:14;6.80;;;5.30;;
11691;SDS011;33659;42.672;23.354;2024-02-23T01:47:41;11.87;;;6.07;;
11691;SDS011;33659;42.672;23.354;2024-02-23T01:50:07;9.93;;;5.30;;
11691;SDS011;33659;42.672;23.354;2024-02-23T01:52:37;8.60;;;5.07;;
11691;SDS011;33659;42.672;23.354;2024-02-23T01:55:06;6.30;;;5.17;;
11691;SDS011;33659;42.672;23.354;2024-02-23T01:57:33;7.73;;;5.17;;
11691;SDS011;33659;42.672;23.354;2024-02-23T02:00:00;8.80;;;5.17;;
11691;SDS011;33659;42.672;23.354;2024-02-23T02:02:27;7.63;;;5.60;;
11691;SDS011;33659;42.672;23.354;2024-02-23T02:04:54;8.23;;;5.13;;
11691;SDS011;33659;42.672;23.354;2024-02-23T02:07:21;8.10;;;5.77;;
11691;SDS011;33659;42.672;23.354;2024-02-23T02:09:50;8.13;;;5.33;;
11691;SDS011;33659;42.672;23.354;2024-02-23T02:12:27;7.63;;;4.83;;
11691;SDS011;33659;42.672;23.354;2024-02-23T02:14:53;8.67;;;5.57;;
11691;SDS011;33659;42.672;23.354;2024-02-23T02:17:20;12.67;;;4.97;;
11691;SDS011;33659;42.672;23.354;2024-02-23T02:19:47;7.00;;;4.87;;
11691;SDS011;33659;42.672;23.354;2024-02-23T02:22:14;6.27;;;5.00;;
11691;SDS011;33659;42.672;23.354;2024-02-23T02:24:41;6.70;;;4.93;;
11691;SDS011;33659;42.672;23.354;2024-02-23T02:27:08;6.47;;;5.23;;
11691;SDS011;33659;42.672;23.354;2024-02-23T02:29:37;8.03;;;5.50;;
11691;SDS011;33659;42.672;23.354;2024-02-23T02:32:04;6.87;;;5.20;;
11691;SDS011;33659;42.672;23.354;2024-02-23T02:34:31;8.77;;;5.17;;
11691;SDS011;33659;42.672;23.354;2024-02-23T02:36:58;7.27;;;4.80;;
11691;SDS011;33659;42.672;23.354;2024-02-23T02:39:25;6.60;;;5.40;;
11691;SDS011;33659;42.672;23.354;2024-02-23T02:41:51;7.43;;;5.60;;
11691;SDS011;33659;42.672;23.354;2024-02-23T02:44:18;8.77;;;5.43;;
11691;SDS011;33659;42.672;23.354;2024-02-23T02:46:46;7.70;;;6.20;;
11691;SDS011;33659;42.672;23.354;2024-02-23T02:49:13;9.67;;;5.70;;
11691;SDS011;33659;42.672;23.354;2024-02-23T02:51:39;6.87;;;5.30;;
11691;SDS011;33659;42.672;23.354;2024-02-23T02:54:06;7.50;;;5.23;;
11691;SDS011;33659;42.672;23.354;2024-02-23T02:56:32;6.83;;;5.20;;
11691;SDS011;33659;42.672;23.354;2024-02-23T02:58:59;7.23;;;5.33;;
11691;SDS011;33659;42.672;23.354;2024-02-23T03:01:26;8.93;;;6.03;;
11691;SDS011;33659;42.672;23.354;2024-02-23T03:03:54;6.37;;;4.80;;
11691;SDS011;33659;42.672;23.354;2024-02-23T03:06:20;7.50;;;5.37;;
11691;SDS011;33659;42.672;23.354;2024-02-23T03:08:47;5.50;;;4.83;;
11691;SDS011;33659;42.672;23.354;2024-02-23T03:11:14;7.10;;;5.43;;
11691;SDS011;33659;42.672;23.354;2024-02-23T03:13:41;7.80;;;5.73;;
11691;SDS011;33659;42.672;23.354;2024-02-23T03:16:14;7.20;;;4.90;;
11691;SDS011;33659;42.672;23.354;2024-02-23T03:18:41;7.00;;;5.43;;
11691;SDS011;33659;42.672;23.354;2024-02-23T03:21:09;6.60;;;5.10;;
11691;SDS011;33659;42.672;23.354;2024-02-23T03:23:36;8.03;;;5.20;;
11691;SDS011;33659;42.672;23.354;2024-02-23T03:26:03;8.73;;;5.77;;
11691;SDS011;33659;42.672;23.354;2024-02-23T03:28:29;8.03;;;6.07;;
11691;SDS011;33659;42.672;23.354;2024-02-23T03:30:57;8.67;;;6.10;;
11691;SDS011;33659;42.672;23.354;2024-02-23T03:33:23;10.07;;;5.93;;
11691;SDS011;33659;42.672;23.354;2024-02-23T03:35:50;8.20;;;5.67;;
11691;SDS011;33659;42.672;23.354;2024-02-23T03:38:18;6.73;;;5.90;;
11691;SDS011;33659;42.672;23.354;2024-02-23T03:40:45;10.20;;;5.53;;
11691;SDS011;33659;42.672;23.354;2024-02-23T03:43:12;9.47;;;5.43;;
11691;SDS011;33659;42.672;23.354;2024-02-23T03:45:38;6.97;;;5.03;;
11691;SDS011;33659;42.672;23.354;2024-02-23T03:48:05;7.63;;;5.63;;
11691;SDS011;33659;42.672;23.354;2024-02-23T03:50:32;6.97;;;5.67;;
11691;SDS011;33659;42.672;23.354;2024-02-23T03:52:59;10.30;;;5.97;;
11691;SDS011;33659;42.672;23.354;2024-02-23T03:55:27;8.80;;;5.63;;
11691;SDS011;33659;42.672;23.354;2024-02-23T03:57:54;8.87;;;6.07;;
11691;SDS011;33659;42.672;23.354;2024-02-23T04:00:20;7.57;;;6.07;;
11691;SDS011;33659;42.672;23.354;2024-02-23T04:02:48;8.63;;;5.30;;
11691;SDS011;33659;42.672;23.354;2024-02-23T04:05:15;7.30;;;5.47;;
11691;SDS011;33659;42.672;23.354;2024-02-23T04:07:42;7.83;;;5.67;;
11691;SDS011;33659;42.672;23.354;2024-02-23T04:10:09;7.57;;;5.93;;
11691;SDS011;33659;42.672;23.354;2024-02-23T04:12:37;7.43;;;5.57;;
11691;SDS011;33659;42.672;23.354;2024-02-23T04:15:04;7.90;;;5.60;;
11691;SDS011;33659;42.672;23.354;2024-02-23T04:17:31;8.87;;;5.73;;
11691;SDS011;33659;42.672;23.354;2024-02-23T04:19:58;10.07;;;5.90;;
11691;SDS011;33659;42.672;23.354;2024-02-23T04:22:26;8.47;;;6.43;;
11691;SDS011;33659;42.672;23.354;2024-02-23T04:24:53;8.23;;;6.30;;
11691;SDS011;33659;42.672;23.354;2024-02-23T04:27:20;7.03;;;5.77;;
11691;SDS011;33659;42.672;23.354;2024-02-23T04:29:48;8.33;;;5.97;;
11691;SDS011;33659;42.672;23.354;2024-02-23T04:32:14;9.43;;;6.30;;
11691;SDS011;33659;42.672;23.354;2024-02-23T04:34:41;9.67;;;6.50;;
11691;SDS011;33659;42.672;23.354;2024-02-23T04:37:08;6.93;;;5.90;;
11691;SDS011;33659;42.672;23.354;2024-02-23T04:39:35;9.20;;;6.43;;
11691;SDS011;33659;42.672;23.354;2024-02-23T04:42:03;8.70;;;5.97;;
11691;SDS011;33659;42.672;23.354;2024-02-23T04:44:30;8.13;;;5.87;;
11691;SDS011;33659;42.672;23.354;2024-02-23T04:46:58;8.10;;;6.23;;
11691;SDS011;33659;42.672;23.354;2024-02-23T04:49:25;8.13;;;5.67;;
11691;SDS011;33659;42.672;23.354;2024-02-23T04:51:51;8.67;;;6.20;;
11691;SDS011;33659;42.672;23.354;2024-02-23T04:54:19;7.50;;;5.80;;
11691;SDS011;33659;42.672;23.354;2024-02-23T04:56:46;10.97;;;6.37;;
11691;SDS011;33659;42.672;23.354;2024-02-23T04:59:13;11.33;;;5.80;;
11691;SDS011;33659;42.672;23.354;2024-02-23T05:01:40;7.27;;;5.80;;
11691;SDS011;33659;42.672;23.354;2024-02-23T05:04:09;7.63;;;5.10;;
11691;SDS011;33659;42.672;23.354;2024-02-23T05:06:35;10.00;;;6.23;;
11691;SDS011;33659;42.672;23.354;2024-02-23T05:09:02;9.23;;;6.10;;
11691;SDS011;33659;42.672;23.354;2024-02-23T05:11:31;8.67;;;6.03;;
11691;SDS011;33659;42.672;23.354;2024-02-23T05:13:58;7.53;;;6.07;;
11691;SDS011;33659;42.672;23.354;2024-02-23T05:16:25;10.27;;;6.40;;
11691;SDS011;33659;42.672;23.354;2024-02-23T05:18:51;9.37;;;6.03;;
11691;SDS011;33659;42.672;23.354;2024-02-23T05:21:19;11.17;;;6.60;;
11691;SDS011;33659;42.672;23.354;2024-02-23T05:23:46;9.40;;;6.37;;
11691;SDS011;33659;42.672;23.354;2024-02-23T05:26:13;8.43;;;5.50;;
11691;SDS011;33659;42.672;23.354;2024-02-23T05:28:39;7.73;;;5.07;;
11691;SDS011;33659;42.672;23.354;2024-02-23T05:31:06;8.93;;;5.90;;
11691;SDS011;33659;42.672;23.354;2024-02-23T05:33:33;10.83;;;6.53;;
11691;SDS011;33659;42.672;23.354;2024-02-23T05:36:00;7.80;;;5.87;;
11691;SDS011;33659;42.672;23.354;2024-02-23T05:38:28;9.27;;;6.60;;
11691;SDS011;33659;42.672;23.354;2024-02-23T05:40:55;10.97;;;7.00;;
11691;SDS011;33659;42.672;23.354;2024-02-23T05:43:22;9.33;;;6.63;;
11691;SDS011;33659;42.672;23.354;2024-02-23T05:45:48;15.03;;;6.43;;
11691;SDS011;33659;42.672;23.354;2024-02-23T05:48:15;11.43;;;7.30;;
11691;SDS011;33659;42.672;23.354;2024-02-23T05:50:44;11.37;;;7.70;;
11691;SDS011;33659;42.672;23.354;2024-02-23T05:53:10;12.00;;;7.97;;
11691;SDS011;33659;42.672;23.354;2024-02-23T05:55:38;11.23;;;7.23;;
11691;SDS011;33659;42.672;23.354;2024-02-23T05:58:05;10.80;;;7.47;;
11691;SDS011;33659;42.672;23.354;2024-02-23T06:00:32;11.10;;;7.77;;
11691;SDS011;33659;42.672;23.354;2024-02-23T06:02:59;9.60;;;7.00;;
11691;SDS011;33659;42.672;23.354;2024-02-23T06:05:26;8.27;;;6.47;;
11691;SDS011;33659;42.672;23.354;2024-02-23T06:07:52;14.33;;;7.27;;
11691;SDS011;33659;42.672;23.354;2024-02-23T06:10:19;10.57;;;7.10;;
11691;SDS011;33659;42.672;23.354;2024-02-23T06:12:47;16.57;;;6.83;;
11691;SDS011;33659;42.672;23.354;2024-02-23T06:15:14;11.03;;;6.80;;
11691;SDS011;33659;42.672;23.354;2024-02-23T06:17:41;10.40;;;7.30;;
11691;SDS011;33659;42.672;23.354;2024-02-23T06:20:08;11.70;;;8.27;;
11691;SDS011;33659;42.672;23.354;2024-02-23T06:22:36;13.00;;;7.73;;
11691;SDS011;33659;42.672;23.354;2024-02-23T06:25:02;10.03;;;7.00;;
11691;SDS011;33659;42.672;23.354;2024-02-23T06:27:29;10.50;;;7.13;;
11691;SDS011;33659;42.672;23.354;2024-02-23T06:29:57;10.37;;;7.10;;
11691;SDS011;33659;42.672;23.354;2024-02-23T06:32:24;11.67;;;7.67;;
11691;SDS011;33659;42.672;23.354;2024-02-23T06:34:51;16.33;;;8.13;;
11691;SDS011;33659;42.672;23.354;2024-02-23T06:37:17;12.00;;;8.03;;
11691;SDS011;33659;42.672;23.354;2024-02-23T06:39:44;7.80;;;6.50;;
11691;SDS011;33659;42.672;23.354;2024-02-23T06:42:15;10.77;;;7.63;;
11691;SDS011;33659;42.672;23.354;2024-02-23T06:44:41;11.83;;;7.20;;
11691;SDS011;33659;42.672;23.354;2024-02-23T06:47:09;15.23;;;7.23;;
11691;SDS011;33659;42.672;23.354;2024-02-23T06:49:37;10.50;;;7.57;;
11691;SDS011;33659;42.672;23.354;2024-02-23T06:52:07;13.63;;;7.73;;
11691;SDS011;33659;42.672;23.354;2024-02-23T06:54:34;11.33;;;7.33;;
11691;SDS011;33659;42.672;23.354;2024-02-23T06:57:01;16.03;;;8.80;;
11691;SDS011;33659;42.672;23.354;2024-02-23T06:59:28;11.47;;;7.70;;
11691;SDS011;33659;42.672;23.354;2024-02-23T07:01:54;11.43;;;7.70;;
11691;SDS011;33659;42.672;23.354;2024-02-23T07:04:23;11.73;;;7.77;;
11691;SDS011;33659;42.672;23.354;2024-02-23T07:06:50;12.83;;;7.50;;
11691;SDS011;33659;42.672;23.354;2024-02-23T07:09:17;11.33;;;7.00;;
11691;SDS011;33659;42.672;23.354;2024-02-23T07:11:43;9.97;;;7.50;;
11691;SDS011;33659;42.672;23.354;2024-02-23T07:14:10;13.40;;;7.00;;
11691;SDS011;33659;42.672;23.354;2024-02-23T07:16:39;9.07;;;7.47;;
11691;SDS011;33659;42.672;23.354;2024-02-23T07:19:06;12.23;;;7.57;;
11691;SDS011;33659;42.672;23.354;2024-02-23T07:21:35;13.37;;;7.63;;
11691;SDS011;33659;42.672;23.354;2024-02-23T07:24:01;15.80;;;8.73;;
11691;SDS011;33659;42.672;23.354;2024-02-23T07:26:28;14.13;;;8.53;;
11691;SDS011;33659;42.672;23.354;2024-02-23T07:28:55;15.23;;;9.00;;
11691;SDS011;33659;42.672;23.354;2024-02-23T07:31:22;16.43;;;9.10;;
11691;SDS011;33659;42.672;23.354;2024-02-23T07:33:48;14.50;;;9.57;;
11691;SDS011;33659;42.672;23.354;2024-02-23T07:36:16;13.50;;;8.30;;
11691;SDS011;33659;42.672;23.354;2024-02-23T07:38:44;12.43;;;8.63;;
11691;SDS011;33659;42.672;23.354;2024-02-23T07:41:11;9.77;;;7.73;;
11691;SDS011;33659;42.672;23.354;2024-02-23T07:43:39;14.40;;;8.00;;
11691;SDS011;33659;42.672;23.354;2024-02-23T07:46:05;10.57;;;8.27;;
11691;SDS011;33659;42.672;23.354;2024-02-23T07:48:34;12.10;;;7.73;;
11691;SDS011;33659;42.672;23.354;2024-02-23T07:51:00;11.00;;;8.50;;
11691;SDS011;33659;42.672;23.354;2024-02-23T07:53:28;16.33;;;7.57;;
11691;SDS011;33659;42.672;23.354;2024-02-23T07:55:56;10.93;;;7.57;;
11691;SDS011;33659;42.672;23.354;2024-02-23T07:58:24;10.67;;;8.03;;
11691;SDS011;33659;42.672;23.354;2024-02-23T08:00:51;11.37;;;6.80;;
11691;SDS011;33659;42.672;23.354;2024-02-23T08:03:19;10.23;;;7.20;;
11691;SDS011;33659;42.672;23.354;2024-02-23T08:05:45;12.07;;;7.47;;
11691;SDS011;33659;42.672;23.354;2024-02-23T08:08:12;11.83;;;8.10;;
11691;SDS011;33659;42.672;23.354;2024-02-23T08:10:39;14.63;;;7.97;;
11691;SDS011;33659;42.672;23.354;2024-02-23T08:13:07;22.87;;;8.47;;
11691;SDS011;33659;42.672;23.354;2024-02-23T08:15:35;13.17;;;8.20;;
11691;SDS011;33659;42.672;23.354;2024-02-23T08:18:02;15.97;;;8.70;;
11691;SDS011;33659;42.672;23.354;2024-02-23T08:20:29;8.47;;;7.30;;
11691;SDS011;33659;42.672;23.354;2024-02-23T08:22:55;10.37;;;7.53;;
11691;SDS011;33659;42.672;23.354;2024-02-23T08:25:22;9.97;;;7.47;;
11691;SDS011;33659;42.672;23.354;2024-02-23T08:27:49;11.33;;;7.90;;
11691;SDS011;33659;42.672;23.354;2024-02-23T08:30:17;11.20;;;7.57;;
11691;SDS011;33659;42.672;23.354;2024-02-23T08:32:45;12.73;;;8.27;;
11691;SDS011;33659;42.672;23.354;2024-02-23T08:35:12;12.00;;;7.47;;
11691;SDS011;33659;42.672;23.354;2024-02-23T08:37:38;14.03;;;7.53;;
11691;SDS011;33659;42.672;23.354;2024-02-23T08:40:07;11.03;;;7.50;;
11691;SDS011;33659;42.672;23.354;2024-02-23T08:42:35;12.03;;;7.80;;
11691;SDS011;33659;42.672;23.354;2024-02-23T08:45:01;12.47;;;8.37;;
11691;SDS011;33659;42.672;23.354;2024-02-23T08:47:29;16.20;;;8.17;;
11691;SDS011;33659;42.672;23.354;2024-02-23T08:50:00;11.33;;;7.07;;
11691;SDS011;33659;42.672;23.354;2024-02-23T08:52:27;11.80;;;7.43;;
11691;SDS011;33659;42.672;23.354;2024-02-23T08:54:54;10.30;;;6.30;;
11691;SDS011;33659;42.672;23.354;2024-02-23T08:57:21;11.77;;;7.20;;
11691;SDS011;33659;42.672;23.354;2024-02-23T08:59:48;10.97;;;7.73;;
11691;SDS011;33659;42.672;23.354;2024-02-23T09:02:15;10.93;;;7.50;;
11691;SDS011;33659;42.672;23.354;2024-02-23T09:04:43;14.27;;;7.40;;
11691;SDS011;33659;42.672;23.354;2024-02-23T09:07:10;10.80;;;6.60;;
11691;SDS011;33659;42.672;23.354;2024-02-23T09:09:37;10.67;;;7.47;;
11691;SDS011;33659;42.672;23.354;2024-02-23T09:12:04;8.43;;;6.17;;
11691;SDS011;33659;42.672;23.354;2024-02-23T09:14:31;8.50;;;6.73;;
11691;SDS011;33659;42.672;23.354;2024-02-23T09:17:00;9.17;;;6.57;;
11691;SDS011;33659;42.672;23.354;2024-02-23T09:19:27;9.73;;;6.53;;
11691;SDS011;33659;42.672;23.354;2024-02-23T09:21:55;8.70;;;5.93;;
11691;SDS011;33659;42.672;23.354;2024-02-23T09:24:21;12.43;;;6.10;;
11691;SDS011;33659;42.672;23.354;2024-02-23T09:26:48;13.10;;;6.00;;
11691;SDS011;33659;42.672;23.354;2024-02-23T09:29:15;9.70;;;6.03;;
11691;SDS011;33659;42.672;23.354;2024-02-23T09:31:41;9.63;;;6.13;;
11691;SDS011;33659;42.672;23.354;2024-02-23T09:34:08;8.05;;;5.70;;
11691;SDS011;33659;42.672;23.354;2024-02-23T09:36:35;6.37;;;4.80;;
11691;SDS011;33659;42.672;23.354;2024-02-23T09:39:03;5.37;;;4.27;;
11691;SDS011;33659;42.672;23.354;2024-02-23T09:41:30;8.00;;;4.30;;
11691;SDS011;33659;42.672;23.354;2024-02-23T09:43:58;5.28;;;4.32;;
11691;SDS011;33659;42.672;23.354;2024-02-23T09:46:25;6.82;;;4.68;;
11691;SDS011;33659;42.672;23.354;2024-02-23T09:48:52;4.53;;;3.88;;
11691;SDS011;33659;42.672;23.354;2024-02-23T09:51:21;5.63;;;4.35;;
11691;SDS011;33659;42.672;23.354;2024-02-23T09:53:49;5.00;;;3.58;;
11691;SDS011;33659;42.672;23.354;2024-02-23T09:56:18;8.77;;;4.10;;
11691;SDS011;33659;42.672;23.354;2024-02-23T09:58:46;5.88;;;4.05;;
11691;SDS011;33659;42.672;23.354;2024-02-23T10:01:15;5.88;;;3.67;;
11691;SDS011;33659;42.672;23.354;2024-02-23T10:03:51;6.03;;;3.50;;
11691;SDS011;33659;42.672;23.354;2024-02-23T10:06:18;6.63;;;3.63;;
11691;SDS011;33659;42.672;23.354;2024-02-23T10:08:45;4.75;;;3.70;;
11691;SDS011;33659;42.672;23.354;2024-02-23T10:11:11;4.07;;;3.22;;
11691;SDS011;33659;42.672;23.354;2024-02-23T10:13:40;3.50;;;3.17;;
11691;SDS011;33659;42.672;23.354;2024-02-23T10:16:08;6.50;;;3.13;;
11691;SDS011;33659;42.672;23.354;2024-02-23T10:18:37;3.63;;;2.83;;
11691;SDS011;33659;42.672;23.354;2024-02-23T10:21:04;3.80;;;2.85;;
11691;SDS011;33659;42.672;23.354;2024-02-23T10:23:31;3.33;;;2.90;;
11691;SDS011;33659;42.672;23.354;2024-02-23T10:25:59;6.47;;;3.33;;
11691;SDS011;33659;42.672;23.354;2024-02-23T10:28:25;3.95;;;3.03;;
11691;SDS011;33659;42.672;23.354;2024-02-23T10:30:54;3.92;;;2.92;;
11691;SDS011;33659;42.672;23.354;2024-02-23T10:33:22;3.78;;;3.00;;
11691;SDS011;33659;42.672;23.354;2024-02-23T10:35:50;5.75;;;2.97;;
11691;SDS011;33659;42.672;23.354;2024-02-23T10:38:22;5.22;;;2.78;;
11691;SDS011;33659;42.672;23.354;2024-02-23T10:40:50;3.90;;;2.97;;
11691;SDS011;33659;42.672;23.354;2024-02-23T10:43:19;4.65;;;2.60;;
11691;SDS011;33659;42.672;23.354;2024-02-23T10:45:49;4.68;;;2.28;;
11691;SDS011;33659;42.672;23.354;2024-02-23T10:48:18;3.60;;;2.60;;
11691;SDS011;33659;42.672;23.354;2024-02-23T10:50:45;2.47;;;2.25;;
11691;SDS011;33659;42.672;23.354;2024-02-23T10:53:11;4.18;;;2.92;;
11691;SDS011;33659;42.672;23.354;2024-02-23T10:55:42;4.97;;;2.35;;
11691;SDS011;33659;42.672;23.354;2024-02-23T10:58:11;2.63;;;2.38;;
11691;SDS011;33659;42.672;23.354;2024-02-23T11:00:38;3.22;;;2.33;;
11691;SDS011;33659;42.672;23.354;2024-02-23T11:03:05;4.20;;;2.50;;
11691;SDS011;33659;42.672;23.354;2024-02-23T11:05:34;3.05;;;2.67;;
11691;SDS011;33659;42.672;23.354;2024-02-23T11:08:01;2.83;;;2.30;;
11691;SDS011;33659;42.672;23.354;2024-02-23T11:10:32;2.60;;;2.40;;
11691;SDS011;33659;42.672;23.354;2024-02-23T11:13:07;2.17;;;1.90;;
11691;SDS011;33659;42.672;23.354;2024-02-23T11:15:34;4.13;;;2.47;;
11691;SDS011;33659;42.672;23.354;2024-02-23T11:20:55;2.50;;;2.10;;
11691;SDS011;33659;42.672;23.354;2024-02-23T11:23:22;2.83;;;1.80;;
11691;SDS011;33659;42.672;23.354;2024-02-23T11:26:04;5.93;;;2.10;;
11691;SDS011;33659;42.672;23.354;2024-02-23T11:28:31;1.90;;;1.80;;
11691;SDS011;33659;42.672;23.354;2024-02-23T11:30:58;2.13;;;1.90;;
11691;SDS011;33659;42.672;23.354;2024-02-23T11:33:27;2.88;;;2.20;;
11691;SDS011;33659;42.672;23.354;2024-02-23T11:36:05;3.53;;;1.88;;
11691;SDS011;33659;42.672;23.354;2024-02-23T11:38:33;2.03;;;1.90;;
11691;SDS011;33659;42.672;23.354;2024-02-23T11:41:00;2.22;;;1.80;;
11691;SDS011;33659;42.672;23.354;2024-02-23T11:43:28;1.95;;;1.80;;
11691;SDS011;33659;42.672;23.354;2024-02-23T11:45:55;2.85;;;1.83;;
11691;SDS011;33659;42.672;23.354;2024-02-23T11:48:22;2.40;;;2.20;;
11691;SDS011;33659;42.672;23.354;2024-02-23T11:50:49;2.03;;;1.83;;
11691;SDS011;33659;42.672;23.354;2024-02-23T11:53:18;2.20;;;2.03;;
11691;SDS011;33659;42.672;23.354;2024-02-23T11:55:47;2.10;;;1.90;;
11691;SDS011;33659;42.672;23.354;2024-02-23T11:58:15;2.78;;;1.80;;
11691;SDS011;33659;42.672;23.354;2024-02-23T12:00:41;2.25;;;1.83;;
11691;SDS011;33659;42.672;23.354;2024-02-23T12:03:08;3.15;;;1.98;;
11691;SDS011;33659;42.672;23.354;2024-02-23T12:05:35;3.13;;;1.50;;
11691;SDS011;33659;42.672;23.354;2024-02-23T12:08:01;2.15;;;2.03;;
11691;SDS011;33659;42.672;23.354;2024-02-23T12:10:30;2.17;;;1.75;;
11691;SDS011;33659;42.672;23.354;2024-02-23T12:12:57;1.90;;;1.80;;
11691;SDS011;33659;42.672;23.354;2024-02-23T12:15:24;1.90;;;1.60;;
11691;SDS011;33659;42.672;23.354;2024-02-23T12:17:53;1.83;;;1.73;;
11691;SDS011;33659;42.672;23.354;2024-02-23T12:20:19;4.07;;;1.65;;
11691;SDS011;33659;42.672;23.354;2024-02-23T12:22:46;1.92;;;1.75;;
11691;SDS011;33659;42.672;23.354;2024-02-23T12:25:13;1.80;;;1.70;;
11691;SDS011;33659;42.672;23.354;2024-02-23T12:27:42;2.00;;;1.90;;
11691;SDS011;33659;42.672;23.354;2024-02-23T12:30:12;1.90;;;1.65;;
11691;SDS011;33659;42.672;23.354;2024-02-23T12:32:40;2.78;;;2.10;;
11691;SDS011;33659;42.672;23.354;2024-02-23T12:35:07;2.20;;;1.92;;
11691;SDS011;33659;42.672;23.354;2024-02-23T12:37:36;2.47;;;1.83;;
11691;SDS011;33659;42.672;23.354;2024-02-23T12:40:04;4.18;;;1.75;;
11691;SDS011;33659;42.672;23.354;2024-02-23T12:42:32;3.72;;;2.50;;
11691;SDS011;33659;42.672;23.354;2024-02-23T12:45:00;1.75;;;1.65;;
11691;SDS011;33659;42.672;23.354;2024-02-23T12:47:27;2.67;;;2.05;;
11691;SDS011;33659;42.672;23.354;2024-02-23T12:49:53;4.68;;;2.10;;
11691;SDS011;33659;42.672;23.354;2024-02-23T12:52:20;2.80;;;1.88;;
11691;SDS011;33659;42.672;23.354;2024-02-23T12:54:47;2.47;;;2.25;;
11691;SDS011;33659;42.672;23.354;2024-02-23T12:57:13;2.03;;;1.83;;
11691;SDS011;33659;42.672;23.354;2024-02-23T12:59:40;1.88;;;1.77;;
11691;SDS011;33659;42.672;23.354;2024-02-23T13:02:08;1.95;;;1.75;;
11691;SDS011;33659;42.672;23.354;2024-02-23T13:04:38;2.00;;;1.50;;
11691;SDS011;33659;42.672;23.354;2024-02-23T13:07:05;2.00;;;1.80;;
11691;SDS011;33659;42.672;23.354;2024-02-23T13:09:32;2.35;;;1.77;;
11691;SDS011;33659;42.672;23.354;2024-02-23T13:11:59;1.70;;;1.60;;
11691;SDS011;33659;42.672;23.354;2024-02-23T13:14:25;2.03;;;1.80;;
11691;SDS011;33659;42.672;23.354;2024-02-23T13:16:52;1.88;;;1.77;;
11691;SDS011;33659;42.672;23.354;2024-02-23T13:19:20;2.20;;;1.80;;
11691;SDS011;33659;42.672;23.354;2024-02-23T13:21:47;5.40;;;1.83;;
11691;SDS011;33659;42.672;23.354;2024-02-23T13:24:13;3.88;;;1.83;;
11691;SDS011;33659;42.672;23.354;2024-02-23T13:26:40;2.75;;;1.70;;
11691;SDS011;33659;42.672;23.354;2024-02-23T13:29:07;1.67;;;1.40;;
11691;SDS011;33659;42.672;23.354;2024-02-23T13:31:33;1.85;;;1.67;;
11691;SDS011;33659;42.672;23.354;2024-02-23T13:34:00;2.15;;;1.83;;
11691;SDS011;33659;42.672;23.354;2024-02-23T13:36:28;1.90;;;1.80;;
11691;SDS011;33659;42.672;23.354;2024-02-23T13:38:55;4.78;;;2.00;;
11691;SDS011;33659;42.672;23.354;2024-02-23T13:41:23;2.22;;;1.77;;
11691;SDS011;33659;42.672;23.354;2024-02-23T13:43:50;2.30;;;2.10;;
11691;SDS011;33659;42.672;23.354;2024-02-23T13:46:16;3.72;;;1.98;;
11691;SDS011;33659;42.672;23.354;2024-02-23T13:48:43;2.53;;;1.90;;
11691;SDS011;33659;42.672;23.354;2024-02-23T13:51:09;2.22;;;2.00;;
11691;SDS011;33659;42.672;23.354;2024-02-23T13:53:38;2.05;;;1.90;;
11691;SDS011;33659;42.672;23.354;2024-02-23T13:56:06;2.83;;;2.28;;
11691;SDS011;33659;42.672;23.354;2024-02-23T13:58:33;3.00;;;2.58;;
11691;SDS011;33659;42.672;23.354;2024-02-23T14:00:59;5.45;;;2.97;;
11691;SDS011;33659;42.672;23.354;2024-02-23T14:03:26;3.60;;;2.67;;
11691;SDS011;33659;42.672;23.354;2024-02-23T14:05:53;2.80;;;2.40;;
11691;SDS011;33659;42.672;23.354;2024-02-23T14:08:19;4.43;;;1.95;;
11691;SDS011;33659;42.672;23.354;2024-02-23T14:10:47;8.02;;;2.40;;
11691;SDS011;33659;42.672;23.354;2024-02-23T14:13:14;3.20;;;2.55;;
11691;SDS011;33659;42.672;23.354;2024-02-23T14:15:41;2.50;;;2.25;;
11691;SDS011;33659;42.672;23.354;2024-02-23T14:18:08;2.70;;;2.40;;
11691;SDS011;33659;42.672;23.354;2024-02-23T14:20:34;3.95;;;2.33;;
11691;SDS011;33659;42.672;23.354;2024-02-23T14:23:01;3.35;;;2.20;;
11691;SDS011;33659;42.672;23.354;2024-02-23T14:25:28;3.40;;;2.55;;
11691;SDS011;33659;42.672;23.354;2024-02-23T14:27:56;2.22;;;2.00;;
11691;SDS011;33659;42.672;23.354;2024-02-23T14:30:22;2.40;;;2.20;;
11691;SDS011;33659;42.672;23.354;2024-02-23T14:32:49;6.22;;;2.25;;
11691;SDS011;33659;42.672;23.354;2024-02-23T14:35:16;2.95;;;1.80;;